createdAt,value
2017-05-09T00:01:08.224Z,2.90
2017-05-09T00:03:37.294Z,2.80
2017-05-09T00:06:06.332Z,2.70
2017-05-09T00:08:35.391Z,2.70
2017-05-09T00:11:04.458Z,2.70
2017-05-09T00:13:34.233Z,2.60
2017-05-09T00:16:03.303Z,2.50
2017-05-09T00:18:32.328Z,2.50
2017-05-09T00:21:01.396Z,2.50
2017-05-09T00:23:30.473Z,2.40
2017-05-09T00:26:00.247Z,2.30
2017-05-09T00:28:29.340Z,2.20
2017-05-09T00:30:58.389Z,2.20
2017-05-09T00:33:27.459Z,2.20
2017-05-09T00:35:57.224Z,2.20
2017-05-09T00:38:26.284Z,2.40
2017-05-09T00:40:55.311Z,2.40
2017-05-09T00:43:24.376Z,2.40
2017-05-09T00:45:53.414Z,2.50
2017-05-09T00:48:22.475Z,2.40
2017-05-09T00:50:51.584Z,2.50
2017-05-09T00:53:20.611Z,2.40
2017-05-09T00:55:49.664Z,2.50
2017-05-09T00:58:18.735Z,2.50
2017-05-09T01:00:48.503Z,2.60
2017-05-09T01:03:17.572Z,2.70
2017-05-09T01:05:46.598Z,2.80
2017-05-09T01:08:15.674Z,2.80
2017-05-09T01:10:44.694Z,2.70
2017-05-09T01:13:13.809Z,2.70
2017-05-09T01:15:43.579Z,2.70
2017-05-09T01:18:12.656Z,2.70
2017-05-09T01:20:41.695Z,2.60
2017-05-09T01:23:11.027Z,2.50
2017-05-09T01:25:40.835Z,2.50
2017-05-09T01:28:10.604Z,2.50
2017-05-09T01:30:39.676Z,2.50
2017-05-09T01:33:08.946Z,2.40
2017-05-09T01:35:38.787Z,2.40
2017-05-09T01:38:07.843Z,2.40
2017-05-09T01:40:37.671Z,2.30
2017-05-09T01:43:07.479Z,2.30
2017-05-09T01:45:37.328Z,2.30
2017-05-09T01:48:06.352Z,2.30
2017-05-09T01:50:35.695Z,2.30
2017-05-09T01:53:05.511Z,2.30
2017-05-09T01:55:35.293Z,2.30
2017-05-09T01:58:04.369Z,2.30
2017-05-09T02:00:33.400Z,2.40
2017-05-09T02:03:03.205Z,2.30
2017-05-09T02:05:32.253Z,2.40
2017-05-09T02:08:01.303Z,2.40
2017-05-09T02:10:31.128Z,2.40
2017-05-09T02:13:00.887Z,2.40
2017-05-09T02:15:29.969Z,2.50
2017-05-09T02:17:59.006Z,2.60
2017-05-09T02:20:28.066Z,2.60
2017-05-09T02:22:57.160Z,2.70
2017-05-09T02:25:26.164Z,2.60
2017-05-09T02:27:55.225Z,2.60
2017-05-09T02:30:24.353Z,2.60
2017-05-09T02:32:53.384Z,2.60
2017-05-09T02:35:22.702Z,2.60
2017-05-09T02:37:52.535Z,2.60
2017-05-09T02:40:21.563Z,2.60
2017-05-09T02:42:50.859Z,2.60
2017-05-09T02:45:19.884Z,2.60
2017-05-09T02:47:48.950Z,2.70
2017-05-09T02:50:18.052Z,2.70
2017-05-09T02:52:47.081Z,2.80
2017-05-09T02:55:16.893Z,2.80
2017-05-09T02:57:46.955Z,2.80
2017-05-09T03:00:16.025Z,2.90
2017-05-09T03:02:45.831Z,2.90
2017-05-09T03:05:15.605Z,3.00
2017-05-09T03:07:44.675Z,3.10
2017-05-09T03:10:13.702Z,3.00
2017-05-09T03:12:42.991Z,3.00
2017-05-09T03:15:12.340Z,3.00
2017-05-09T03:17:42.151Z,3.10
2017-05-09T03:20:11.918Z,3.00
2017-05-09T03:22:40.975Z,3.00
2017-05-09T03:25:10.024Z,3.10
2017-05-09T03:27:39.100Z,3.10
2017-05-09T03:30:08.119Z,3.20
2017-05-09T03:32:37.184Z,3.30
2017-05-09T03:35:06.227Z,3.20
2017-05-09T03:37:35.995Z,3.20
2017-05-09T03:40:05.068Z,3.20
2017-05-09T03:42:34.097Z,3.20
2017-05-09T03:45:03.190Z,3.30
2017-05-09T03:47:32.263Z,3.30
2017-05-09T03:50:01.296Z,3.40
2017-05-09T03:52:30.631Z,3.50
2017-05-09T03:55:00.447Z,3.50
2017-05-09T03:57:29.475Z,3.60
2017-05-09T03:59:58.539Z,3.60
2017-05-09T04:02:27.565Z,3.60
2017-05-09T04:04:56.628Z,3.60
2017-05-09T04:07:25.697Z,3.70
2017-05-09T04:09:54.730Z,3.70
2017-05-09T04:12:23.807Z,3.70
2017-05-09T04:14:53.589Z,3.70
2017-05-09T04:17:22.651Z,3.60
2017-05-09T04:19:51.677Z,3.60
2017-05-09T04:22:20.752Z,3.70
2017-05-09T04:24:50.111Z,3.80
2017-05-09T04:27:19.878Z,3.90
2017-05-09T04:29:48.968Z,4.00
2017-05-09T04:32:17.982Z,4.00
2017-05-09T04:34:47.048Z,4.10
2017-05-09T04:37:16.111Z,4.20
2017-05-09T04:39:45.130Z,4.20
2017-05-09T04:42:14.197Z,4.20
2017-05-09T04:44:43.227Z,4.30
2017-05-09T04:47:12.310Z,4.30
2017-05-09T04:49:41.331Z,4.40
2017-05-09T04:52:10.408Z,4.40
2017-05-09T04:54:39.423Z,4.50
2017-05-09T04:57:09.313Z,4.50
2017-05-09T04:59:38.336Z,4.50
2017-05-09T05:02:07.412Z,4.50
2017-05-09T05:04:36.485Z,4.60
2017-05-09T05:07:05.508Z,4.60
2017-05-09T05:09:34.572Z,4.70
2017-05-09T05:12:03.636Z,4.70
2017-05-09T05:14:32.659Z,4.80
2017-05-09T05:17:01.723Z,4.90
2017-05-09T05:19:30.791Z,4.80
2017-05-09T05:21:59.820Z,4.90
2017-05-09T05:24:29.636Z,5.00
2017-05-09T05:26:59.403Z,5.00
2017-05-09T05:29:28.467Z,5.10
2017-05-09T05:31:57.696Z,5.20
2017-05-09T05:34:26.734Z,5.20
2017-05-09T05:36:55.792Z,5.30
2017-05-09T05:39:24.873Z,5.30
2017-05-09T05:41:53.907Z,5.30
2017-05-09T05:44:22.984Z,5.30
2017-05-09T05:46:52.012Z,5.50
2017-05-09T05:49:22.144Z,5.40
2017-05-09T05:51:51.971Z,5.50
2017-05-09T05:54:21.006Z,5.50
2017-05-09T05:56:50.355Z,5.60
2017-05-09T05:59:20.478Z,5.60
2017-05-09T06:01:50.238Z,5.70
2017-05-09T06:04:19.592Z,5.70
2017-05-09T06:06:49.412Z,5.70
2017-05-09T06:09:18.446Z,5.70
2017-05-09T06:11:47.517Z,5.80
2017-05-09T06:14:16.895Z,5.90
2017-05-09T06:16:46.671Z,6.00
2017-05-09T06:19:15.740Z,6.00
2017-05-09T06:21:44.775Z,6.00
2017-05-09T06:24:13.830Z,6.00
2017-05-09T06:26:42.900Z,6.00
2017-05-09T06:29:11.936Z,6.00
2017-05-09T06:31:41.225Z,6.00
2017-05-09T06:34:10.243Z,6.20
2017-05-09T06:36:39.299Z,6.20
2017-05-09T06:39:08.364Z,6.20
2017-05-09T06:41:38.127Z,6.30
2017-05-09T06:44:07.221Z,6.30
2017-05-09T06:46:36.253Z,6.50
2017-05-09T06:49:05.307Z,6.60
2017-05-09T06:51:34.381Z,6.70
2017-05-09T06:54:03.416Z,6.60
2017-05-09T06:56:32.488Z,6.70
2017-05-09T06:59:01.727Z,6.70
2017-05-09T07:01:30.818Z,6.70
2017-05-09T07:03:59.844Z,6.60
2017-05-09T07:06:29.656Z,6.30
2017-05-09T07:08:59.429Z,6.40
2017-05-09T07:11:28.776Z,6.70
2017-05-09T07:13:57.860Z,6.90
2017-05-09T07:16:27.615Z,7.10
2017-05-09T07:18:56.688Z,7.10
2017-05-09T07:21:25.721Z,6.80
2017-05-09T07:23:54.776Z,7.00
2017-05-09T07:26:23.807Z,7.00
2017-05-09T07:28:52.885Z,7.00
2017-05-09T07:31:21.902Z,7.10
2017-05-09T07:33:50.971Z,7.30
2017-05-09T07:36:20.009Z,7.60
2017-05-09T07:38:49.084Z,7.70
2017-05-09T07:41:18.151Z,7.70
2017-05-09T07:43:47.187Z,7.60
2017-05-09T07:46:16.259Z,7.70
2017-05-09T07:48:45.307Z,7.70
2017-05-09T07:51:15.092Z,7.60
2017-05-09T07:53:44.739Z,7.70
2017-05-09T07:56:14.512Z,7.70
2017-05-09T07:58:43.579Z,7.30
2017-05-09T08:01:12.604Z,7.60
2017-05-09T08:03:41.695Z,7.70
2017-05-09T08:06:10.716Z,7.80
2017-05-09T08:08:40.516Z,8.00
2017-05-09T08:11:09.583Z,8.20
2017-05-09T08:13:38.619Z,8.50
2017-05-09T08:16:07.669Z,8.40
2017-05-09T08:18:36.720Z,8.40
2017-05-09T08:21:06.488Z,8.20
2017-05-09T08:23:35.536Z,8.00
2017-05-09T08:26:05.304Z,8.00
2017-05-09T08:28:34.569Z,8.20
2017-05-09T08:31:03.600Z,7.90
2017-05-09T08:33:32.672Z,7.80
2017-05-09T08:36:01.700Z,8.00
2017-05-09T08:38:30.755Z,8.20
2017-05-09T08:40:59.830Z,8.40
2017-05-09T08:43:28.851Z,8.30
2017-05-09T08:45:57.921Z,8.30
2017-05-09T08:48:26.999Z,8.20
2017-05-09T08:50:56.803Z,8.20
2017-05-09T08:53:25.847Z,8.10
2017-05-09T08:55:54.889Z,8.40
2017-05-09T08:58:23.967Z,8.60
2017-05-09T09:00:53.005Z,8.70
2017-05-09T09:03:22.080Z,8.70
2017-05-09T09:05:51.117Z,9.00
2017-05-09T09:08:20.156Z,9.40
2017-05-09T09:10:49.191Z,9.60
2017-05-09T09:13:18.305Z,9.60
2017-05-09T09:15:47.323Z,9.40
2017-05-09T09:18:16.377Z,9.00
2017-05-09T09:20:45.408Z,8.40
2017-05-09T09:23:14.767Z,7.80
2017-05-09T09:25:44.536Z,7.50
2017-05-09T09:28:13.624Z,7.70
2017-05-09T09:30:42.660Z,7.90
2017-05-09T09:33:12.465Z,8.30
2017-05-09T09:35:42.252Z,8.30
2017-05-09T09:38:11.308Z,8.50
2017-05-09T09:40:40.360Z,8.80
2017-05-09T09:43:09.395Z,9.00
2017-05-09T09:45:38.452Z,8.80
2017-05-09T09:48:07.489Z,9.00
2017-05-09T09:50:36.566Z,9.20
2017-05-09T09:53:05.603Z,9.40
2017-05-09T09:55:34.671Z,9.40
2017-05-09T09:58:03.952Z,9.40
2017-05-09T10:00:33.719Z,9.20
2017-05-09T10:03:02.783Z,9.10
2017-05-09T10:05:31.844Z,9.10
2017-05-09T10:08:00.903Z,8.80
2017-05-09T10:10:29.937Z,8.80
2017-05-09T10:12:59.741Z,8.70
2017-05-09T10:15:29.059Z,8.90
2017-05-09T10:17:58.871Z,9.10
2017-05-09T10:20:28.887Z,9.40
2017-05-09T10:22:58.684Z,9.60
2017-05-09T10:25:27.711Z,9.50
2017-05-09T10:27:56.780Z,9.50
2017-05-09T10:30:26.539Z,9.90
2017-05-09T10:32:55.631Z,10.10
2017-05-09T10:35:24.660Z,9.80
2017-05-09T10:37:53.995Z,9.70
2017-05-09T10:40:23.796Z,9.30
2017-05-09T10:42:53.568Z,9.20
2017-05-09T10:45:22.631Z,9.20
2017-05-09T10:47:51.708Z,9.20
2017-05-09T10:50:21.511Z,9.30
2017-05-09T10:52:51.289Z,9.40
2017-05-09T10:55:20.344Z,9.50
2017-05-09T10:57:49.410Z,9.80
2017-05-09T11:00:18.433Z,9.90
2017-05-09T11:02:47.504Z,10.00
2017-05-09T11:05:17.278Z,10.00
2017-05-09T11:07:46.335Z,10.10
2017-05-09T11:10:15.402Z,10.10
2017-05-09T11:12:44.452Z,10.00
2017-05-09T11:15:13.521Z,9.80
2017-05-09T11:17:42.539Z,9.90
2017-05-09T11:20:11.611Z,10.00
2017-05-09T11:22:40.683Z,9.60
2017-05-09T11:25:09.730Z,8.60
2017-05-09T11:27:38.772Z,8.10
2017-05-09T11:30:07.835Z,7.50
2017-05-09T11:32:36.892Z,7.40
2017-05-09T11:35:06.289Z,7.20
2017-05-09T11:37:35.308Z,7.10
2017-05-09T11:40:04.375Z,6.90
2017-05-09T11:42:33.406Z,6.80
2017-05-09T11:45:02.528Z,6.40
2017-05-09T11:47:32.464Z,6.50
2017-05-09T11:50:02.263Z,6.60
2017-05-09T11:52:32.160Z,6.80
2017-05-09T11:55:01.231Z,6.90
2017-05-09T11:57:30.292Z,6.80
2017-05-09T12:00:00.063Z,6.60
2017-05-09T12:02:29.141Z,6.90
2017-05-09T12:04:58.160Z,7.10
2017-05-09T12:07:28.424Z,7.10
2017-05-09T12:09:58.191Z,7.10
2017-05-09T12:12:27.270Z,7.30
2017-05-09T12:14:56.633Z,7.50
2017-05-09T12:17:26.398Z,7.40
2017-05-09T12:19:56.170Z,7.50
2017-05-09T12:22:25.210Z,7.60
2017-05-09T12:24:54.275Z,7.80
2017-05-09T12:27:23.313Z,7.80
2017-05-09T12:29:52.379Z,7.90
2017-05-09T12:32:21.409Z,7.90
2017-05-09T12:34:50.464Z,7.80
2017-05-09T12:37:19.524Z,8.00
2017-05-09T12:39:49.294Z,7.90
2017-05-09T12:42:18.353Z,8.00
2017-05-09T12:44:47.391Z,7.70
2017-05-09T12:47:16.451Z,7.80
2017-05-09T12:49:45.479Z,7.90
2017-05-09T12:52:14.553Z,8.10
2017-05-09T12:54:43.567Z,8.40
2017-05-09T12:57:12.637Z,8.40
2017-05-09T12:59:43.874Z,8.40
2017-05-09T13:02:13.576Z,8.40
2017-05-09T13:04:42.611Z,8.30
2017-05-09T13:07:11.673Z,8.40
2017-05-09T13:09:40.695Z,8.40
2017-05-09T13:12:10.045Z,8.50
2017-05-09T13:14:39.082Z,8.50
2017-05-09T13:17:08.152Z,8.50
2017-05-09T13:19:37.185Z,8.80
2017-05-09T13:22:06.265Z,8.90
2017-05-09T13:24:35.296Z,8.70
2017-05-09T13:27:04.352Z,8.70
2017-05-09T13:29:33.685Z,8.80
2017-05-09T13:32:02.711Z,9.00
2017-05-09T13:34:32.527Z,9.00
2017-05-09T13:37:02.316Z,8.70
2017-05-09T13:39:31.388Z,8.80
2017-05-09T13:42:00.509Z,8.70
2017-05-09T13:44:29.572Z,8.80
2017-05-09T13:46:58.609Z,8.80
2017-05-09T13:49:28.444Z,8.80
2017-05-09T13:51:57.475Z,9.00
2017-05-09T13:54:26.547Z,8.90
2017-05-09T13:56:55.615Z,9.10
2017-05-09T13:59:25.386Z,9.20
2017-05-09T14:01:54.455Z,9.60
2017-05-09T14:04:23.505Z,9.40
2017-05-09T14:06:53.281Z,9.30
2017-05-09T14:09:22.326Z,9.20
2017-05-09T14:11:52.096Z,9.20
2017-05-09T14:14:21.163Z,9.40
2017-05-09T14:16:50.253Z,9.70
2017-05-09T14:19:19.325Z,9.80
2017-05-09T14:21:49.158Z,10.10
2017-05-09T14:24:18.201Z,10.50
2017-05-09T14:26:48.167Z,10.40
2017-05-09T14:29:17.208Z,10.40
2017-05-09T14:31:46.275Z,10.60
2017-05-09T14:34:15.321Z,10.60
2017-05-09T14:36:44.398Z,11.50
2017-05-09T14:39:13.422Z,11.80
2017-05-09T14:41:43.646Z,11.40
2017-05-09T14:44:13.472Z,11.50
2017-05-09T14:46:42.503Z,11.40
2017-05-09T14:49:11.595Z,11.40
2017-05-09T14:51:40.633Z,11.80
2017-05-09T14:54:10.445Z,12.50
2017-05-09T14:56:40.216Z,12.10
2017-05-09T14:59:09.292Z,11.60
2017-05-09T15:01:38.327Z,11.40
2017-05-09T15:04:07.420Z,11.20
2017-05-09T15:06:36.494Z,11.40
2017-05-09T15:09:05.859Z,11.50
2017-05-09T15:11:34.945Z,10.70
2017-05-09T15:14:04.719Z,10.40
2017-05-09T15:16:34.110Z,10.30
2017-05-09T15:19:03.134Z,10.50
2017-05-09T15:21:32.211Z,10.60
2017-05-09T15:24:01.245Z,10.50
2017-05-09T15:26:31.101Z,10.40
2017-05-09T15:29:00.134Z,10.30
2017-05-09T15:31:29.203Z,10.50
2017-05-09T15:33:58.248Z,10.90
2017-05-09T15:36:28.050Z,11.00
2017-05-09T15:38:57.835Z,11.00
2017-05-09T15:41:26.896Z,11.00
2017-05-09T15:43:55.936Z,10.90
2017-05-09T15:46:25.012Z,11.10
2017-05-09T15:48:54.047Z,11.80
2017-05-09T15:51:23.852Z,12.90
2017-05-09T15:53:52.924Z,12.80
2017-05-09T15:56:21.955Z,12.00
2017-05-09T15:58:51.763Z,11.90
2017-05-09T16:01:21.575Z,12.40
2017-05-09T16:03:51.361Z,12.70
2017-05-09T16:06:20.440Z,13.00
2017-05-09T16:08:49.800Z,12.50
2017-05-09T16:11:19.613Z,13.20
2017-05-09T16:13:48.647Z,12.80
2017-05-09T16:16:17.719Z,13.00
2017-05-09T16:18:46.784Z,12.10
2017-05-09T16:21:15.879Z,12.50
2017-05-09T16:23:45.141Z,13.20
2017-05-09T16:26:14.216Z,12.50
2017-05-09T16:28:43.491Z,13.60
2017-05-09T16:31:12.575Z,13.40
2017-05-09T16:33:42.356Z,12.50
2017-05-09T16:36:11.437Z,12.30
2017-05-09T16:38:40.470Z,12.30
2017-05-09T16:41:10.281Z,13.20
2017-05-09T16:43:39.322Z,14.30
2017-05-09T16:46:08.399Z,14.60
2017-05-09T16:48:37.426Z,13.50
2017-05-09T16:51:06.492Z,12.90
2017-05-09T16:53:35.555Z,13.00
2017-05-09T16:56:05.370Z,13.00
2017-05-09T16:58:34.424Z,13.20
2017-05-09T17:01:03.478Z,13.50
2017-05-09T17:03:32.568Z,13.90
2017-05-09T17:06:02.348Z,14.40
2017-05-09T17:08:32.296Z,12.70
2017-05-09T17:11:01.786Z,11.90
2017-05-09T17:13:30.851Z,11.90
2017-05-09T17:15:59.922Z,12.10
2017-05-09T17:18:28.963Z,11.80
2017-05-09T17:20:58.041Z,12.10
2017-05-09T17:23:27.092Z,12.50
2017-05-09T17:25:56.166Z,12.20
2017-05-09T17:28:25.483Z,11.50
2017-05-09T17:30:54.520Z,11.30
2017-05-09T17:33:23.939Z,11.30
2017-05-09T17:35:52.981Z,11.80
2017-05-09T17:38:22.044Z,12.40
2017-05-09T17:40:51.099Z,12.10
2017-05-09T17:43:20.172Z,11.90
2017-05-09T17:45:49.227Z,11.80
2017-05-09T17:48:18.305Z,11.60
2017-05-09T17:50:47.352Z,10.90
2017-05-09T17:53:17.167Z,10.40
2017-05-09T17:55:46.465Z,10.20
2017-05-09T17:58:16.282Z,10.10
2017-05-09T18:00:45.325Z,10.30
2017-05-09T18:03:14.379Z,10.40
2017-05-09T18:05:43.453Z,10.20
2017-05-09T18:08:13.227Z,10.30
2017-05-09T18:10:42.305Z,10.40
2017-05-09T18:13:11.679Z,10.40
2017-05-09T18:15:41.517Z,10.20
2017-05-09T18:18:10.556Z,10.20
2017-05-09T18:20:39.982Z,10.20
2017-05-09T18:23:09.763Z,10.00
2017-05-09T18:25:38.819Z,9.90
2017-05-09T18:28:07.894Z,10.00
2017-05-09T18:30:36.944Z,9.80
2017-05-09T18:33:06.038Z,9.70
2017-05-09T18:35:35.078Z,9.60
2017-05-09T18:38:04.161Z,9.50
2017-05-09T18:40:33.964Z,9.50
2017-05-09T18:43:02.992Z,9.60
2017-05-09T18:45:32.045Z,9.50
2017-05-09T18:48:01.079Z,9.60
2017-05-09T18:50:30.162Z,9.70
2017-05-09T18:52:59.943Z,9.40
2017-05-09T18:55:29.008Z,9.40
2017-05-09T18:57:58.040Z,9.40
2017-05-09T19:00:27.366Z,9.30
2017-05-09T19:02:57.160Z,9.40
2017-05-09T19:05:26.217Z,9.30
2017-05-09T19:07:55.246Z,9.30
2017-05-09T19:10:25.061Z,9.20
2017-05-09T19:12:54.094Z,9.10
2017-05-09T19:15:23.162Z,9.10
2017-05-09T19:17:52.990Z,9.00
2017-05-09T19:20:22.292Z,8.80
2017-05-09T19:22:51.356Z,8.70
2017-05-09T19:25:20.414Z,8.60
2017-05-09T19:27:49.455Z,8.70
2017-05-09T19:30:18.545Z,8.60
2017-05-09T19:32:47.611Z,8.60
2017-05-09T19:35:16.632Z,8.60
2017-05-09T19:37:45.707Z,8.60
2017-05-09T19:40:14.739Z,8.60
2017-05-09T19:42:44.538Z,8.50
2017-05-09T19:45:13.864Z,8.40
2017-05-09T19:47:43.692Z,8.30
2017-05-09T19:50:12.730Z,8.30
2017-05-09T19:52:41.832Z,8.30
2017-05-09T19:55:10.875Z,8.40
2017-05-09T19:57:40.175Z,8.40
2017-05-09T20:00:09.204Z,8.30
2017-05-09T20:02:38.260Z,8.30
2017-05-09T20:05:07.315Z,8.30
2017-05-09T20:07:36.422Z,8.30
2017-05-09T20:10:05.528Z,8.40
2017-05-09T20:12:34.559Z,8.30
2017-05-09T20:15:03.636Z,8.20
2017-05-09T20:17:32.673Z,8.20
2017-05-09T20:20:01.756Z,8.00
2017-05-09T20:22:30.805Z,8.00
2017-05-09T20:24:59.888Z,8.00
2017-05-09T20:27:28.923Z,8.00
2017-05-09T20:29:57.989Z,7.90
2017-05-09T20:32:27.832Z,7.80
2017-05-09T20:34:56.893Z,7.90
2017-05-09T20:37:25.951Z,7.90
2017-05-09T20:39:54.988Z,7.90
2017-05-09T20:42:24.797Z,7.90
2017-05-09T20:44:53.862Z,8.00
2017-05-09T20:47:22.891Z,8.00
2017-05-09T20:49:51.961Z,8.00
2017-05-09T20:52:21.303Z,8.00
2017-05-09T20:54:51.104Z,8.00
2017-05-09T20:57:20.172Z,8.00
2017-05-09T20:59:49.242Z,7.90
2017-05-09T21:02:18.312Z,7.90
2017-05-09T21:04:47.388Z,7.90
2017-05-09T21:07:17.164Z,7.80
2017-05-09T21:09:46.231Z,7.80
2017-05-09T21:12:15.596Z,7.80
2017-05-09T21:14:44.659Z,7.80
2017-05-09T21:17:13.720Z,7.80
2017-05-09T21:19:42.793Z,7.80
2017-05-09T21:22:12.568Z,7.70
2017-05-09T21:24:41.639Z,7.70
2017-05-09T21:27:10.660Z,7.80
2017-05-09T21:29:39.999Z,7.80
2017-05-09T21:32:09.785Z,7.70
2017-05-09T21:34:39.116Z,7.70
2017-05-09T21:37:08.921Z,7.70
2017-05-09T21:39:38.678Z,7.70
2017-05-09T21:42:07.747Z,7.70
2017-05-09T21:44:36.813Z,7.70
2017-05-09T21:47:05.843Z,7.60
2017-05-09T21:49:35.229Z,7.50
2017-05-09T21:52:05.000Z,7.50
2017-05-09T21:54:34.347Z,7.50
2017-05-09T21:57:04.119Z,7.40
2017-05-09T21:59:33.204Z,7.40
2017-05-09T22:02:02.255Z,7.40
2017-05-09T22:04:31.288Z,7.40
2017-05-09T22:07:00.344Z,7.50
2017-05-09T22:09:29.391Z,7.50
2017-05-09T22:11:58.439Z,7.50
2017-05-09T22:14:27.512Z,7.50
2017-05-09T22:16:57.279Z,7.50
2017-05-09T22:19:26.348Z,7.50
2017-05-09T22:21:55.399Z,7.50
2017-05-09T22:24:24.450Z,7.50
2017-05-09T22:26:53.507Z,7.50
2017-05-09T22:29:23.268Z,7.60
2017-05-09T22:31:52.331Z,7.50
2017-05-09T22:34:21.374Z,7.50
2017-05-09T22:36:50.432Z,7.50
2017-05-09T22:39:19.517Z,7.50
2017-05-09T22:41:48.539Z,7.60
2017-05-09T22:44:18.425Z,7.60
2017-05-09T22:46:47.451Z,7.50
2017-05-09T22:49:16.816Z,7.50
2017-05-09T22:51:46.603Z,7.60
2017-05-09T22:54:15.632Z,7.60
2017-05-09T22:56:44.923Z,7.60
2017-05-09T22:59:13.956Z,7.70
2017-05-09T23:01:43.319Z,7.60
2017-05-09T23:04:13.083Z,7.60
2017-05-09T23:06:42.155Z,7.60
2017-05-09T23:09:11.186Z,7.60
2017-05-09T23:11:40.524Z,7.60
2017-05-09T23:14:08.856Z,7.60
2017-05-09T23:16:37.888Z,7.60
2017-05-09T23:19:08.019Z,7.60
2017-05-09T23:21:37.059Z,7.60
2017-05-09T23:24:06.115Z,7.60
2017-05-09T23:26:35.149Z,7.50
2017-05-09T23:29:04.194Z,7.50
2017-05-09T23:31:33.973Z,7.60
2017-05-09T23:34:03.037Z,7.50
2017-05-09T23:36:32.155Z,7.50
2017-05-09T23:39:01.184Z,7.50
2017-05-09T23:41:30.272Z,7.60
2017-05-09T23:43:59.300Z,7.50
2017-05-09T23:46:28.368Z,7.50
2017-05-09T23:48:58.155Z,7.50
2017-05-09T23:51:27.228Z,7.40
2017-05-09T23:53:56.266Z,7.50
2017-05-09T23:56:25.329Z,7.50
2017-05-09T23:58:54.394Z,7.50
